Time;durP1;ratioP1;P1;durP2;ratioP2;P2;SDS_P1;SDS_P2;PMS_P1;PMS_P2;Temp;Humidity;BMP_temperature;BMP_pressure;BME280_temperature;BME280_humidity;BME280_pressure;Samples;Min_cycle;Max_cycle;Signal;HPM_P1;HPM_P2
2023/03/09 00:01:39;;;;;;;39.05;16.63;;;;;;;;;;4895006;29;20054;-63
2023/03/09 00:04:06;;;;;;;34.13;16.65;;;1.40;99.90;;;;;;4898154;29;20056;-63
2023/03/09 00:06:32;;;;;;;31.00;15.43;;;1.30;99.90;;;;;;4899507;29;20391;-62
2023/03/09 00:08:58;;;;;;;31.45;15.13;;;1.40;99.90;;;;;;4899229;29;20029;-63
2023/03/09 00:11:24;;;;;;;30.88;15.57;;;;;;;;;;4899480;29;20563;-64
2023/03/09 00:13:50;;;;;;;30.08;14.55;;;1.30;99.90;;;;;;4899100;29;20195;-64
2023/03/09 00:16:25;;;;;;;34.35;16.67;;;1.30;99.90;;;;;;4899454;29;20510;-63
2023/03/09 00:18:51;;;;;;;37.67;15.82;;;0.90;99.90;;;;;;4897425;29;20041;-63
2023/03/09 00:21:37;;;;;;;40.50;16.92;;;1.40;99.90;;;;;;4899361;29;20048;-60
2023/03/09 00:24:16;;;;;;;40.38;16.80;;;1.50;99.90;;;;;;4899030;29;20036;-62
2023/03/09 00:27:09;;;;;;;32.67;15.90;;;1.40;99.90;;;;;;4899235;29;20028;-62
2023/03/09 00:29:35;;;;;;;38.08;17.50;;;1.90;99.90;;;;;;4894740;29;20116;-63
2023/03/09 00:32:01;;;;;;;40.88;16.63;;;2.10;99.90;;;;;;4898732;29;20499;-61
2023/03/09 00:34:27;;;;;;;42.20;17.20;;;;;;;;;;4897092;29;20040;-62
2023/03/09 00:36:53;;;;;;;38.38;16.95;;;;;;;;;;4880187;29;20029;-63
2023/03/09 00:39:18;;;;;;;38.25;17.73;;;1.30;99.90;;;;;;4880211;29;20120;-63
2023/03/09 00:41:44;;;;;;;35.28;17.67;;;1.30;99.90;;;;;;4880308;29;20082;-65
2023/03/09 00:44:11;;;;;;;34.22;17.40;;;1.30;99.90;;;;;;4879862;29;20421;-65
2023/03/09 00:46:37;;;;;;;39.17;18.10;;;;;;;;;;4880256;29;20408;-63
2023/03/09 00:49:05;;;;;;;35.08;17.45;;;1.50;99.90;;;;;;4879898;29;20028;-62
2023/03/09 00:51:32;;;;;;;34.45;17.42;;;;;;;;;;4883754;29;20395;-63
2023/03/09 00:53:58;;;;;;;41.95;18.30;;;;;;;;;;4898313;29;20031;-61
2023/03/09 00:56:25;;;;;;;37.85;17.88;;;1.30;99.90;;;;;;4898660;29;20024;-63
2023/03/09 00:58:52;;;;;;;42.50;18.80;;;1.40;99.90;;;;;;4898721;29;20084;-63
2023/03/09 01:01:18;;;;;;;45.47;20.33;;;;;;;;;;4898644;29;20112;-62
2023/03/09 01:03:44;;;;;;;45.55;19.67;;;1.30;99.90;;;;;;4898195;29;20373;-66
2023/03/09 01:06:11;;;;;;;44.00;19.08;;;0.60;99.90;;;;;;4898385;29;20077;-63
2023/03/09 01:08:37;;;;;;;42.75;18.42;;;;;;;;;;4896879;29;20032;-63
2023/03/09 01:11:08;;;;;;;40.72;19.02;;;1.30;99.90;;;;;;4897980;29;20475;-63
2023/03/09 01:13:34;;;;;;;43.60;18.50;;;1.30;99.90;;;;;;4897817;29;20041;-64
2023/03/09 01:16:00;;;;;;;40.08;19.73;;;1.40;99.90;;;;;;4898414;29;20451;-63
2023/03/09 01:18:25;;;;;;;43.58;19.80;;;1.30;99.90;;;;;;4898222;29;20024;-62
2023/03/09 01:20:51;;;;;;;51.30;20.20;;;0.90;99.90;;;;;;4898129;29;20583;-62
2023/03/09 01:23:17;;;;;;;40.95;19.23;;;;;;;;;;4888180;29;20394;-62
2023/03/09 01:25:43;;;;;;;39.90;19.55;;;;;;;;;;4879041;29;20037;-62
2023/03/09 01:28:09;;;;;;;43.00;19.60;;;1.30;99.90;;;;;;4879273;29;20029;-62
2023/03/09 01:30:35;;;;;;;41.65;18.45;;;;;;;;;;4879091;29;20056;-61
2023/03/09 01:33:01;;;;;;;39.75;18.88;;;;;;;;;;4878846;29;20523;-63
2023/03/09 01:35:27;;;;;;;43.92;19.60;;;;;;;;;;4879331;29;20089;-59
2023/03/09 01:37:53;;;;;;;38.63;19.20;;;1.30;99.90;;;;;;4891976;29;20644;-61
2023/03/09 01:40:22;;;;;;;39.60;18.25;;;1.30;99.90;;;;;;4897830;29;20027;-62
2023/03/09 01:42:59;;;;;;;45.28;20.10;;;1.30;99.90;;;;;;4897797;29;20032;-61
2023/03/09 01:45:24;;;;;;;51.08;21.27;;;1.30;99.90;;;;;;4897817;29;20025;-62
2023/03/09 01:47:50;;;;;;;46.65;20.25;;;1.20;99.90;;;;;;4897641;29;20028;-62
2023/03/09 01:50:24;;;;;;;44.58;19.90;;;1.30;99.90;;;;;;4880569;29;20032;-62
2023/03/09 01:52:52;;;;;;;54.60;21.35;;;1.20;99.90;;;;;;4860547;29;20116;-62
2023/03/09 01:55:26;;;;;;;46.10;19.92;;;1.30;99.90;;;;;;4860313;29;20033;-63
2023/03/09 01:57:54;;;;;;;55.55;21.73;;;1.30;99.90;;;;;;4843905;29;20089;-62
2023/03/09 02:00:24;;;;;;;58.92;21.05;;;1.30;99.90;;;;;;4860159;29;20126;-62
2023/03/09 02:02:59;;;;;;;55.92;22.15;;;1.00;99.90;;;;;;4860319;29;20061;-62
2023/03/09 02:05:33;;;;;;;56.03;23.48;;;1.20;99.90;;;;;;4875618;29;20016;-64
2023/03/09 02:08:00;;;;;;;54.70;22.52;;;1.20;99.90;;;;;;4897338;29;20025;-62
2023/03/09 02:10:34;;;;;;;54.17;22.83;;;1.20;99.90;;;;;;4896968;29;20123;-62
2023/03/09 02:13:06;;;;;;;70.35;23.15;;;1.20;99.90;;;;;;4896983;29;20028;-64
2023/03/09 02:15:31;;;;;;;56.15;22.42;;;1.00;99.90;;;;;;4897432;29;20067;-62
2023/03/09 02:17:57;;;;;;;55.70;21.67;;;;;;;;;;4897228;29;20064;-64
2023/03/09 02:20:54;;;;;;;52.75;22.48;;;1.10;99.90;;;;;;4882302;29;20033;-62
2023/03/09 02:23:30;;;;;;;53.47;21.33;;;1.20;99.90;;;;;;4878124;29;20056;-64
2023/03/09 02:26:12;;;;;;;52.55;21.30;;;1.00;99.90;;;;;;4877738;29;20029;-63
2023/03/09 02:28:38;;;;;;;55.25;21.92;;;1.00;99.90;;;;;;4878301;29;20055;-63
2023/03/09 02:31:05;;;;;;;60.40;22.48;;;1.20;99.90;;;;;;4878324;29;20115;-63
2023/03/09 02:33:31;;;;;;;55.88;22.90;;;1.00;99.90;;;;;;4884227;29;20056;-62
2023/03/09 02:35:58;;;;;;;58.65;22.48;;;1.10;99.90;;;;;;4896971;29;20032;-62
2023/03/09 02:38:24;;;;;;;53.95;21.80;;;1.20;99.90;;;;;;4896774;29;20107;-62
2023/03/09 02:40:50;;;;;;;61.80;22.67;;;;;;;;;;4896648;29;20036;-61
2023/03/09 02:43:23;;;;;;;60.58;22.55;;;1.00;99.90;;;;;;4896544;29;20075;-64
2023/03/09 02:45:49;;;;;;;61.88;22.85;;;;;;;;;;4896634;29;20040;-64
2023/03/09 02:48:15;;;;;;;53.83;22.90;;;0.90;99.90;;;;;;4884822;29;20064;-64
2023/03/09 02:50:41;;;;;;;62.40;23.17;;;0.60;99.90;;;;;;4877855;29;20064;-63
2023/03/09 02:53:07;;;;;;;62.20;23.95;;;1.10;99.90;;;;;;4877602;29;20060;-61
2023/03/09 02:55:33;;;;;;;59.28;22.00;;;;;;;;;;4877969;29;20085;-63
2023/03/09 02:57:59;;;;;;;58.78;23.58;;;;;;;;;;4877915;29;20032;-62
2023/03/09 03:00:26;;;;;;;59.28;24.10;;;1.00;99.90;;;;;;4878670;29;20041;-62
2023/03/09 03:02:52;;;;;;;61.85;23.52;;;;;;;;;;4877846;29;20037;-62
2023/03/09 03:05:18;;;;;;;58.92;22.92;;;0.90;99.90;;;;;;4877700;29;20480;-62
2023/03/09 03:07:43;;;;;;;63.95;24.92;;;1.00;99.90;;;;;;4877886;29;20065;-62
2023/03/09 03:10:10;;;;;;;65.68;24.73;;;0.90;99.90;;;;;;4905052;23;20056;-63
2023/03/09 03:12:36;;;;;;;60.22;22.95;;;1.00;99.90;;;;;;4895787;29;20039;-62
2023/03/09 03:15:02;;;;;;;64.25;25.15;;;;;;;;;;4895745;29;20030;-63
2023/03/09 03:17:28;;;;;;;70.88;25.77;;;0.90;99.90;;;;;;4896275;29;20411;-63
2023/03/09 03:19:54;;;;;;;66.07;25.55;;;1.10;99.90;;;;;;4896270;29;20057;-63
2023/03/09 03:22:19;;;;;;;70.72;24.85;;;0.90;99.90;;;;;;4896368;29;20025;-62
2023/03/09 03:24:45;;;;;;;70.15;25.52;;;0.70;99.90;;;;;;4896164;29;20480;-64
2023/03/09 03:27:11;;;;;;;68.43;24.60;;;;;;;;;;4891057;29;20395;-61
2023/03/09 03:29:37;;;;;;;65.00;22.63;;;0.80;99.90;;;;;;4877600;29;20032;-61
2023/03/09 03:32:02;;;;;;;67.68;25.33;;;1.10;99.90;;;;;;4877436;29;20021;-62
2023/03/09 03:34:29;;;;;;;58.10;21.13;;;0.80;99.90;;;;;;4877294;29;20037;-63
2023/03/09 03:36:54;;;;;;;62.15;23.95;;;0.80;99.90;;;;;;4878561;29;20025;-63
2023/03/09 03:39:20;;;;;;;60.42;22.45;;;0.70;99.90;;;;;;4881142;29;20463;-60
2023/03/09 03:41:46;;;;;;;56.53;21.48;;;0.60;99.90;;;;;;4889379;29;20033;-63
2023/03/09 03:44:13;;;;;;;59.28;21.90;;;0.70;99.90;;;;;;4899096;29;20029;-60
2023/03/09 03:46:38;;;;;;;65.53;22.25;;;0.60;99.90;;;;;;4899910;29;20043;-62
2023/03/09 03:49:04;;;;;;;63.40;22.25;;;0.60;99.90;;;;;;4899699;29;20029;-57
2023/03/09 03:51:30;;;;;;;58.08;22.45;;;0.70;99.90;;;;;;4899519;29;20403;-63
2023/03/09 03:53:56;;;;;;;59.13;22.90;;;;;;;;;;4899475;29;20088;-60
2023/03/09 03:56:22;;;;;;;57.22;22.08;;;;;;;;;;4887402;29;20120;-63
2023/03/09 03:58:48;;;;;;;54.60;20.17;;;;;;;;;;4880788;29;20079;-63
2023/03/09 04:01:14;;;;;;;63.33;22.40;;;;;;;;;;4880745;29;20476;-64
2023/03/09 04:03:40;;;;;;;66.10;23.38;;;;;;;;;;4880479;29;20029;-62
2023/03/09 04:06:05;;;;;;;69.57;23.95;;;0.60;99.90;;;;;;4880800;29;20527;-61
2023/03/09 04:08:31;;;;;;;56.00;21.83;;;0.50;99.90;;;;;;4880810;29;20028;-63
2023/03/09 04:10:57;;;;;;;55.03;20.90;;;0.60;99.90;;;;;;4895971;29;20047;-64
2023/03/09 04:13:23;;;;;;;60.28;22.30;;;0.60;99.90;;;;;;4882267;29;20029;-62
2023/03/09 04:15:48;;;;;;;73.70;22.52;;;0.60;99.90;;;;;;4899245;29;20156;-62
2023/03/09 04:18:15;;;;;;;63.20;22.80;;;;;;;;;;4899368;29;20128;-63
2023/03/09 04:20:42;;;;;;;66.60;21.45;;;-0.10;99.90;;;;;;4899179;29;20029;-62
2023/03/09 04:23:09;;;;;;;67.32;23.60;;;0.50;99.90;;;;;;4897959;29;20275;-60
2023/03/09 04:25:35;;;;;;;71.45;23.02;;;0.50;99.90;;;;;;4880405;29;20035;-62
2023/03/09 04:28:02;;;;;;;59.97;21.10;;;0.50;99.90;;;;;;4880376;29;20028;-62
2023/03/09 04:30:27;;;;;;;77.63;24.23;;;0.50;99.90;;;;;;4880158;29;20121;-62
2023/03/09 04:32:54;;;;;;;75.47;24.42;;;;;;;;;;4863562;29;20108;-62
2023/03/09 04:35:19;;;;;;;73.68;27.70;;;0.50;99.90;;;;;;4879966;29;20119;-62
2023/03/09 04:37:45;;;;;;;65.10;24.38;;;;;;;;;;4884741;29;20116;-63
2023/03/09 04:40:12;;;;;;;70.35;26.35;;;0.40;99.90;;;;;;4898829;29;20039;-63
2023/03/09 04:42:38;;;;;;;74.63;25.88;;;0.40;99.90;;;;;;4881833;29;20033;-62
2023/03/09 04:45:04;;;;;;;75.72;24.73;;;0.40;99.90;;;;;;4898342;29;20076;-62
2023/03/09 04:47:30;;;;;;;72.25;25.33;;;0.50;99.90;;;;;;4898425;29;20080;-62
2023/03/09 04:49:57;;;;;;;73.57;26.83;;;;;;;;;;4898048;29;20028;-61
2023/03/09 04:52:22;;;;;;;77.85;26.70;;;0.60;99.90;;;;;;4889599;29;20119;-61
2023/03/09 04:54:48;;;;;;;72.13;25.83;;;0.60;99.90;;;;;;4879469;29;20559;-62
2023/03/09 04:57:14;;;;;;;68.55;25.00;;;;;;;;;;4879806;29;20045;-63
2023/03/09 04:59:41;;;;;;;71.57;24.65;;;;;;;;;;4879741;29;20029;-63
2023/03/09 05:02:07;;;;;;;68.65;25.08;;;0.50;99.90;;;;;;4879640;29;20096;-63
2023/03/09 05:04:33;;;;;;;71.72;25.33;;;0.60;99.90;;;;;;4879424;29;20475;-60
2023/03/09 05:06:59;;;;;;;64.75;26.65;;;;;;;;;;4891729;29;20047;-60
2023/03/09 05:09:25;;;;;;;77.75;26.17;;;;;;;;;;4897909;29;20336;-59
2023/03/09 05:11:51;;;;;;;68.72;27.60;;;;;;;;;;4898183;29;20020;-61
2023/03/09 05:14:20;;;;;;;67.60;27.42;;;1.60;99.90;;;;;;4897986;29;20029;-60
2023/03/09 05:16:51;;;;;;;77.03;26.95;;;0.80;99.90;;;;;;4897991;29;20029;-61
2023/03/09 05:19:17;;;;;;;73.70;26.17;;;;;;;;;;4897833;29;20067;-58
2023/03/09 05:21:42;;;;;;;80.45;28.27;;;1.00;99.90;;;;;;4880359;29;20029;-61
2023/03/09 05:24:08;;;;;;;77.82;26.67;;;;;;;;;;4879021;29;20555;-62
2023/03/09 05:26:34;;;;;;;66.00;25.40;;;0.70;99.90;;;;;;4879089;29;20028;-59
2023/03/09 05:29:00;;;;;;;71.32;27.77;;;;;;;;;;4878854;29;20033;-58
2023/03/09 05:31:26;;;;;;;72.40;27.52;;;0.60;99.90;;;;;;4878857;29;20044;-63
2023/03/09 05:33:54;;;;;;;70.85;27.60;;;0.60;99.90;;;;;;4880541;29;20029;-60
2023/03/09 05:36:23;;;;;;;72.18;27.20;;;0.60;99.90;;;;;;4897694;29;20028;-63
2023/03/09 05:38:49;;;;;;;73.88;26.80;;;;;;;;;;4897285;29;20115;-60
2023/03/09 05:41:16;;;;;;;66.88;26.58;;;;;;;;;;4897497;29;20029;-61
2023/03/09 05:43:42;;;;;;;71.63;27.52;;;0.70;99.90;;;;;;4897160;29;20099;-59
2023/03/09 05:46:13;;;;;;;80.03;28.80;;;0.60;99.90;;;;;;4897360;29;20029;-57
2023/03/09 05:48:39;;;;;;;75.25;28.58;;;;;;;;;;4889790;29;20436;-61
2023/03/09 05:51:07;;;;;;;75.97;28.25;;;0.70;99.90;;;;;;4878802;29;20492;-60
2023/03/09 05:53:34;;;;;;;69.47;28.33;;;0.70;99.90;;;;;;4877969;29;20029;-61
2023/03/09 05:56:00;;;;;;;83.72;30.27;;;0.60;99.90;;;;;;4878696;29;20031;-61
2023/03/09 05:58:26;;;;;;;90.43;29.73;;;;;;;;;;4878321;29;20326;-62
2023/03/09 06:00:52;;;;;;;74.10;28.67;;;;;;;;;;4877620;29;20029;-58
2023/03/09 06:03:21;;;;;;;70.25;28.35;;;0.70;99.90;;;;;;4889507;29;20028;-60
2023/03/09 06:05:47;;;;;;;71.05;27.58;;;0.70;99.90;;;;;;4896534;29;20029;-56
2023/03/09 06:08:13;;;;;;;74.78;28.73;;;;;;;;;;4897037;29;20365;-63
2023/03/09 06:10:39;;;;;;;72.90;29.02;;;;;;;;;;4896787;29;20084;-61
2023/03/09 06:13:05;;;;;;;75.03;28.95;;;;;;;;;;4879667;29;20123;-53
2023/03/09 06:15:32;;;;;;;76.63;30.02;;;;;;;;;;4896839;29;20036;-61
2023/03/09 06:17:58;;;;;;;75.93;28.85;;;;;;;;;;4863452;29;20123;-62
2023/03/09 06:20:24;;;;;;;69.65;27.65;;;;;;;;;;4877729;29;20024;-64
2023/03/09 06:22:50;;;;;;;75.88;28.58;;;;;;;;;;4878151;29;20037;-61
2023/03/09 06:25:16;;;;;;;72.55;28.60;;;;;;;;;;4877763;29;20244;-58
2023/03/09 06:27:42;;;;;;;78.28;28.30;;;;;;;;;;4877881;29;20048;-60
2023/03/09 06:30:08;;;;;;;67.20;28.10;;;0.60;99.90;;;;;;4889712;29;20092;-63
2023/03/09 06:32:34;;;;;;;67.43;28.63;;;;;;;;;;4883633;29;20164;-62
2023/03/09 06:35:01;;;;;;;82.35;29.33;;;0.60;99.90;;;;;;4877260;29;20136;-62
2023/03/09 06:37:27;;;;;;;75.53;28.58;;;;;;;;;;4877228;29;20029;-63
2023/03/09 06:39:53;;;;;;;71.18;27.23;;;;;;;;;;4877422;29;20429;-57
2023/03/09 06:42:19;;;;;;;75.70;28.52;;;;;;;;;;4877531;29;20063;-57
2023/03/09 06:44:45;;;;;;;71.72;28.35;;;;;;;;;;4877235;29;20325;-63
2023/03/09 06:47:12;;;;;;;72.60;30.15;;;;;;;;;;4892793;29;20381;-63
2023/03/09 06:49:38;;;;;;;80.70;33.00;;;0.80;99.90;;;;;;4895739;29;20096;-59
2023/03/09 06:52:04;;;;;;;67.60;27.90;;;0.80;99.90;;;;;;4895957;29;20475;-63
2023/03/09 06:54:30;;;;;;;70.85;29.45;;;;;;;;;;4895572;29;20024;-59
2023/03/09 06:56:56;;;;;;;74.70;28.98;;;;;;;;;;4896396;29;20056;-59
2023/03/09 06:59:22;;;;;;;67.05;28.98;;;;;;;;;;4894438;29;20028;-62
2023/03/09 07:01:48;;;;;;;73.25;30.15;;;;;;;;;;4877348;29;20162;-64
2023/03/09 07:04:14;;;;;;;73.22;26.63;;;;;;;;;;4877348;29;20084;-62
2023/03/09 07:06:40;;;;;;;66.72;27.70;;;;;;;;;;4877132;29;20184;-62
2023/03/09 07:09:06;;;;;;;67.00;27.88;;;;;;;;;;4877479;29;20139;-62
2023/03/09 07:11:31;;;;;;;54.50;24.77;;;1.20;99.90;;;;;;4876809;29;20051;-58
2023/03/09 07:13:57;;;;;;;61.88;27.08;;;;;;;;;;4877209;29;20037;-61
2023/03/09 07:16:24;;;;;;;64.63;24.77;;;;;;;;;;4882357;29;20047;-61
2023/03/09 07:18:50;;;;;;;57.15;24.67;;;;;;;;;;4895975;29;20029;-64
2023/03/09 07:21:16;;;;;;;62.88;25.33;;;;;;;;;;4896124;29;20115;-60
2023/03/09 07:23:42;;;;;;;49.28;20.58;;;;;;;;;;4895998;29;20047;-60
2023/03/09 07:26:08;;;;;;;52.25;23.02;;;;;;;;;;4895822;29;20471;-61
2023/03/09 07:28:35;;;;;;;58.45;25.05;;;;;;;;;;4895374;29;20366;-59
2023/03/09 07:31:12;;;;;;;54.47;23.40;;;1.20;99.90;;;;;;4896029;29;20726;-60
2023/03/09 07:33:38;;;;;;;43.28;20.63;;;;;;;;;;4884186;29;20127;-60
2023/03/09 07:36:08;;;;;;;46.65;22.27;;;1.00;99.90;;;;;;4877714;29;20029;-63
2023/03/09 07:38:34;;;;;;;58.40;22.35;;;;;;;;;;4877428;29;20033;-59
2023/03/09 07:41:00;;;;;;;52.47;22.80;;;1.00;99.90;;;;;;4876789;29;20080;-59
2023/03/09 07:43:27;;;;;;;53.50;22.52;;;;;;;;;;4876900;29;20029;-57
2023/03/09 07:45:53;;;;;;;44.90;22.40;;;;;;;;;;4876935;29;20029;-55
2023/03/09 07:48:19;;;;;;;52.65;21.85;;;;;;;;;;4876856;29;20549;-55
2023/03/09 07:50:45;;;;;;;44.75;22.15;;;1.40;99.90;;;;;;4878346;29;20042;-62
2023/03/09 07:53:11;;;;;;;42.50;20.77;;;;;;;;;;4876677;29;20033;-60
2023/03/09 07:55:38;;;;;;;44.97;20.75;;;;;;;;;;4859595;29;20029;-58
2023/03/09 07:58:04;;;;;;;40.15;20.80;;;;;;;;;;4876420;29;20124;-61
2023/03/09 08:00:32;;;;;;;49.05;21.52;;;0.40;99.90;;;;;;4876658;29;20033;-63
2023/03/09 08:02:58;;;;;;;48.83;20.77;;;;;;;;;;4876412;29;20112;-60
2023/03/09 08:05:24;;;;;;;49.75;21.90;;;;;;;;;;4876568;29;20101;-60
2023/03/09 08:07:50;;;;;;;74.05;27.00;;;1.60;99.90;;;;;;4893912;29;20451;-60
2023/03/09 08:10:18;;;;;;;48.60;21.92;;;1.70;99.90;;;;;;4894855;29;20119;-64
2023/03/09 08:12:47;;;;;;;34.72;20.20;;;1.60;99.90;;;;;;4895300;29;20112;-61
2023/03/09 08:15:13;;;;;;;52.78;23.00;;;;;;;;;;4895123;29;20495;-63
2023/03/09 08:17:39;;;;;;;41.00;21.60;;;;;;;;;;4895056;29;20483;-63
2023/03/09 08:20:08;;;;;;;43.55;21.65;;;1.80;99.90;;;;;;4895285;29;20035;-62
2023/03/09 08:22:36;;;;;;;38.88;20.48;;;1.80;99.90;;;;;;4892560;29;20118;-59
2023/03/09 08:25:03;;;;;;;54.80;21.75;;;1.80;99.90;;;;;;4878674;29;20104;-63
2023/03/09 08:27:29;;;;;;;44.22;20.92;;;;;;;;;;4879808;29;20077;-61
2023/03/09 08:29:55;;;;;;;34.90;20.67;;;;;;;;;;4879704;29;20072;-62
2023/03/09 08:32:23;;;;;;;55.42;22.02;;;;;;;;;;4879662;29;20443;-59
2023/03/09 08:34:50;;;;;;;40.50;21.15;;;;;;;;;;4879068;29;20022;-61
2023/03/09 08:37:15;;;;;;;45.60;22.23;;;2.20;99.90;;;;;;4879422;29;20025;-61
2023/03/09 08:39:41;;;;;;;43.53;21.90;;;;;;;;;;4880813;29;20035;-61
2023/03/09 08:42:07;;;;;;;39.50;20.85;;;2.10;99.90;;;;;;4862685;29;20108;-63
2023/03/09 08:44:32;;;;;;;35.53;20.08;;;2.20;99.90;;;;;;4879107;29;20161;-58
2023/03/09 08:46:59;;;;;;;33.95;19.63;;;;;;;;;;4879413;29;20089;-61
2023/03/09 08:49:24;;;;;;;37.42;20.75;;;;;;;;;;4879476;29;20539;-64
2023/03/09 08:51:50;;;;;;;37.85;20.80;;;;;;;;;;4879128;29;20054;-64
2023/03/09 08:54:16;;;;;;;45.08;23.08;;;;;;;;;;4879056;29;20111;-60
2023/03/09 08:56:43;;;;;;;45.97;22.02;;;;;;;;;;4889620;29;20033;-62
2023/03/09 08:59:09;;;;;;;48.08;23.30;;;1.90;99.90;;;;;;4897792;29;20434;-63
2023/03/09 09:01:35;;;;;;;37.38;21.55;;;;;;;;;;4898049;29;20029;-63
2023/03/09 09:04:01;;;;;;;38.47;21.02;;;;;;;;;;4897717;29;20076;-58
2023/03/09 09:06:28;;;;;;;50.38;23.45;;;;;;;;;;4897657;29;20031;-64
2023/03/09 09:08:54;;;;;;;48.00;24.20;;;;;;;;;;4897773;29;20103;-55
2023/03/09 09:11:20;;;;;;;50.33;23.92;;;;;;;;;;4899969;23;20115;-58
2023/03/09 09:13:47;;;;;;;50.65;25.20;;;;;;;;;;4891104;29;20487;-60
2023/03/09 09:16:15;;;;;;;53.35;26.17;;;1.80;99.90;;;;;;4898539;29;20128;-60
2023/03/09 09:18:42;;;;;;;54.10;25.27;;;;;;;;;;4898362;29;20390;-61
2023/03/09 09:21:10;;;;;;;52.70;24.23;;;2.00;99.90;;;;;;4886712;29;20025;-61
2023/03/09 09:23:36;;;;;;;48.72;24.60;;;;;;;;;;4879302;29;20032;-57
2023/03/09 09:26:02;;;;;;;55.55;25.98;;;;;;;;;;4879339;29;20037;-58
2023/03/09 09:28:28;;;;;;;47.65;24.05;;;;;;;;;;4878880;29;20407;-60
2023/03/09 09:30:59;;;;;;;72.53;27.00;;;2.00;99.90;;;;;;4854494;29;20048;-62
2023/03/09 09:33:27;;;;;;;61.05;26.38;;;2.10;99.90;;;;;;4879108;29;20043;-59
2023/03/09 09:36:11;;;;;;;52.30;25.35;;;2.20;99.90;;;;;;4879037;29;20085;-58
2023/03/09 09:38:37;;;;;;;53.88;26.05;;;2.20;99.90;;;;;;4879322;29;20107;-62
2023/03/09 09:41:11;;;;;;;52.78;26.10;;;2.20;99.90;;;;;;4878981;29;20025;-60
2023/03/09 09:43:38;;;;;;;53.90;25.50;;;2.30;99.90;;;;;;4862181;29;20089;-55
2023/03/09 09:46:06;;;;;;;53.20;27.35;;;2.10;99.90;;;;;;4877532;29;20033;-60
2023/03/09 09:48:32;;;;;;;54.85;26.95;;;2.40;99.90;;;;;;4878865;29;20598;-60
2023/03/09 09:51:19;;;;;;;52.90;26.52;;;2.50;99.90;;;;;;4878779;29;20492;-56
2023/03/09 09:53:59;;;;;;;46.67;24.75;;;2.50;99.90;;;;;;4878376;29;20484;-60
2023/03/09 09:56:33;;;;;;;52.05;25.48;;;2.50;99.90;;;;;;4878546;29;20037;-62
2023/03/09 09:59:06;;;;;;;53.13;24.05;;;2.50;99.90;;;;;;4878516;29;20033;-61
2023/03/09 10:01:34;;;;;;;48.50;25.65;;;;;;;;;;4878179;29;20403;-61
2023/03/09 10:04:04;;;;;;;51.80;24.90;;;2.50;99.90;;;;;;4877642;29;20049;-59
2023/03/09 10:06:31;;;;;;;44.67;25.08;;;2.60;99.90;;;;;;4879132;29;20061;-58
2023/03/09 10:08:57;;;;;;;52.20;25.13;;;;;;;;;;4878663;29;20444;-56
2023/03/09 10:11:23;;;;;;;52.80;25.92;;;;;;;;;;4878043;29;20097;-57
2023/03/09 10:13:54;;;;;;;51.33;25.00;;;2.50;99.90;;;;;;4878141;29;20089;-59
2023/03/09 10:16:27;;;;;;;50.28;24.75;;;2.50;99.90;;;;;;4878602;29;20071;-64
2023/03/09 10:19:01;;;;;;;50.80;25.60;;;2.50;99.90;;;;;;4876837;29;20112;-61
2023/03/09 10:21:57;;;;;;;;;;;2.50;99.90;;;;;;4879150;29;20025;-57
2023/03/09 10:24:28;;;;;;;54.07;25.20;;;2.30;99.90;;;;;;4861692;29;19915;-61
2023/03/09 10:27:15;;;;;;;52.63;25.65;;;2.40;99.90;;;;;;4878394;29;20560;-57
2023/03/09 10:29:50;;;;;;;54.13;24.90;;;2.40;99.90;;;;;;4841158;29;20040;-62
2023/03/09 10:32:24;;;;;;;55.45;25.77;;;2.50;99.90;;;;;;4853045;29;20472;-54
2023/03/09 10:34:59;;;;;;;;;;;2.50;99.90;;;;;;4860195;29;20029;-57
2023/03/09 10:37:32;;;;;;;52.67;25.57;;;2.40;99.90;;;;;;4859316;29;19912;-63
2023/03/09 10:40:04;;;;;;;60.40;26.00;;;2.60;99.90;;;;;;4859101;29;20273;-58
2023/03/09 10:42:36;;;;;;;51.72;25.80;;;2.30;99.90;;;;;;4859375;29;20021;-58
2023/03/09 10:45:16;;;;;;;51.33;25.05;;;2.20;99.90;;;;;;4858836;29;20030;-59
2023/03/09 10:48:08;;;;;;;63.60;26.88;;;2.50;99.90;;;;;;4858898;29;20033;-58
2023/03/09 10:50:36;;;;;;;52.00;25.88;;;2.40;99.90;;;;;;4859148;29;20098;-63
2023/03/09 10:53:34;;;;;;;48.40;25.17;;;2.30;99.90;;;;;;4871031;29;20039;-59
2023/03/09 10:56:30;;;;;;;49.20;24.55;;;2.30;99.90;;;;;;4825992;29;20045;-59
2023/03/09 10:59:12;;;;;;;53.75;25.90;;;2.30;99.90;;;;;;4877591;29;20029;-58
2023/03/09 11:01:38;;;;;;;58.58;26.52;;;2.30;99.90;;;;;;4861000;29;20113;-52
2023/03/09 11:04:22;;;;;;;52.50;25.88;;;2.80;99.90;;;;;;4879831;29;20419;-58
2023/03/09 11:06:59;;;;;;;60.83;26.25;;;2.30;99.90;;;;;;4880270;29;20539;-60
2023/03/09 11:09:36;;;;;;;54.72;26.30;;;2.20;99.90;;;;;;4876355;29;20033;-61
2023/03/09 11:12:27;;;;;;;60.25;27.75;;;2.30;99.90;;;;;;4840492;29;20041;-59
2023/03/09 11:14:59;;;;;;;51.28;25.23;;;2.30;99.90;;;;;;4840137;29;20037;-62
2023/03/09 11:17:39;;;;;;;58.30;27.45;;;2.10;99.90;;;;;;4840225;29;20033;-59
2023/03/09 11:20:23;;;;;;;64.90;29.30;;;2.20;99.90;;;;;;4851093;29;20064;-61
2023/03/09 11:23:10;;;;;;;62.00;27.33;;;2.30;99.90;;;;;;4858918;29;20045;-57
2023/03/09 11:25:42;;;;;;;55.45;29.15;;;2.30;99.90;;;;;;4860296;29;20461;-58
2023/03/09 11:29:05;;;;;;;59.22;26.80;;;2.20;99.90;;;;;;4858786;29;20036;-59
2023/03/09 11:31:42;;;;;;;53.13;26.40;;;2.30;99.90;;;;;;4801333;29;20172;-60
2023/03/09 11:34:29;;;;;;;53.40;25.70;;;2.30;99.90;;;;;;4801151;29;20095;-58
2023/03/09 11:37:08;;;;;;;56.78;26.52;;;2.20;99.90;;;;;;4801249;29;20035;-54
2023/03/09 11:39:54;;;;;;;57.33;27.27;;;2.30;99.90;;;;;;4801425;29;20038;-57
2023/03/09 11:42:36;;;;;;;56.90;25.95;;;2.30;99.90;;;;;;4801534;29;20627;-60
2023/03/09 11:45:05;;;;;;;57.15;26.80;;;2.30;99.90;;;;;;4801737;29;20512;-63
2023/03/09 11:47:42;;;;;;;59.70;27.70;;;2.50;99.90;;;;;;4801712;29;20043;-59
2023/03/09 11:50:19;;;;;;;51.08;26.15;;;2.40;99.90;;;;;;4801433;29;20127;-60
2023/03/09 11:52:51;;;;;;;62.45;28.95;;;2.70;99.90;;;;;;4800962;29;20023;-61
2023/03/09 11:55:22;;;;;;;65.30;28.95;;;2.40;99.90;;;;;;4801349;29;20099;-60
2023/03/09 11:57:54;;;;;;;52.55;26.70;;;2.40;99.90;;;;;;4800995;29;20038;-58
2023/03/09 12:00:21;;;;;;;58.40;27.10;;;2.40;99.90;;;;;;4804429;29;20095;-56
2023/03/09 12:03:02;;;;;;;61.85;28.05;;;2.30;99.90;;;;;;4845824;29;20041;-59
2023/03/09 12:05:34;;;;;;;63.03;27.08;;;2.30;99.90;;;;;;4862420;29;20021;-59
2023/03/09 12:08:01;;;;;;;55.28;27.30;;;;;;;;;;4862146;29;20496;-56
2023/03/09 12:10:48;;;;;;;58.40;27.92;;;2.40;99.90;;;;;;4861774;29;20384;-58
2023/03/09 12:13:25;;;;;;;64.38;26.75;;;2.40;99.90;;;;;;4861773;29;20510;-57
2023/03/09 12:15:51;;;;;;;60.92;27.58;;;;;;;;;;4862895;29;20078;-55
2023/03/09 12:18:28;;;;;;;60.92;28.15;;;2.20;99.90;;;;;;4861677;29;20057;-59
2023/03/09 12:20:56;;;;;;;59.55;27.05;;;3.00;99.90;;;;;;4861410;29;20026;-60
2023/03/09 12:23:39;;;;;;;54.50;26.42;;;2.50;99.90;;;;;;4861150;29;20056;-62
2023/03/09 12:26:29;;;;;;;59.17;29.08;;;2.60;99.90;;;;;;4845308;29;20392;-61
2023/03/09 12:28:57;;;;;;;57.35;28.50;;;2.40;99.90;;;;;;4861888;29;20432;-61
2023/03/09 12:31:35;;;;;;;58.78;28.48;;;2.60;99.90;;;;;;4858107;29;20496;-63
2023/03/09 12:34:09;;;;;;;56.70;27.08;;;2.60;99.90;;;;;;4843722;29;20034;-61
2023/03/09 12:36:39;;;;;;;54.47;27.20;;;2.60;99.90;;;;;;4842955;29;20089;-62
2023/03/09 12:39:27;;;;;;;53.47;27.95;;;2.50;99.90;;;;;;4844249;29;20157;-61
2023/03/09 12:42:01;;;;;;;68.20;28.55;;;2.50;99.90;;;;;;4844489;29;20492;-61
2023/03/09 12:44:45;;;;;;;61.53;28.08;;;2.70;99.90;;;;;;4844620;29;20552;-62
2023/03/09 12:47:20;;;;;;;49.93;24.97;;;2.40;99.90;;;;;;4844643;29;20034;-63
2023/03/09 12:49:48;;;;;;;62.08;27.15;;;2.50;99.90;;;;;;4858701;29;20481;-63
2023/03/09 12:52:26;;;;;;;61.38;26.92;;;2.50;99.90;;;;;;4860942;29;20030;-63
2023/03/09 12:55:00;;;;;;;51.88;26.38;;;2.50;99.90;;;;;;4860789;29;20465;-65
2023/03/09 12:57:26;;;;;;;56.92;27.65;;;2.50;99.90;;;;;;4860893;29;20617;-64
2023/03/09 12:59:52;;;;;;;67.93;27.25;;;2.50;99.90;;;;;;4861165;29;20029;-64
2023/03/09 13:02:37;;;;;;;56.90;27.80;;;2.40;99.90;;;;;;4861359;29;20270;-60
2023/03/09 13:05:48;;;;;;;62.45;27.58;;;2.50;99.90;;;;;;4861024;29;20103;-61
2023/03/09 13:08:35;;;;;;;71.13;27.05;;;3.00;99.90;;;;;;4854773;29;20108;-67
2023/03/09 13:11:21;;;;;;;64.70;27.27;;;2.50;99.90;;;;;;4859967;29;20068;-62
2023/03/09 13:13:49;;;;;;;60.78;28.77;;;;;;;;;;4860510;29;20084;-61
2023/03/09 13:16:34;;;;;;;54.33;27.10;;;2.60;99.90;;;;;;4862856;29;20497;-61
2023/03/09 13:19:20;;;;;;;64.13;27.95;;;2.60;99.90;;;;;;4878931;29;20040;-62
2023/03/09 13:21:59;;;;;;;67.75;29.52;;;2.50;99.90;;;;;;4878970;29;20035;-63
2023/03/09 13:24:38;;;;;;;68.68;29.52;;;2.70;99.90;;;;;;4519423;29;10000132;-58